Arrecife, Spain

5:27 PM WET on March 25, 2017 (GMT +0000)
Lanzarote | | Change Station

Elev 131 ft 28.95 °N, 13.60 °W | Updated 27 minutes ago

Scattered Clouds
Scattered Clouds
63 °F
Feels Like 63 °F
N
8
Wind Variable Wind from East

Today
High -- | Low -- °F
--% Chance of Precip.
Yesterday
High -- | Low -- °F
Precip. -- in
Pressure 30.04 in
Visibility 6.2 miles
Clouds Few 4200 ft
Scattered Clouds 4700 ft
Dew Point 48 °F
Humidity 59%
Rainfall 0.00 in
Snow Depth Not available.
6:52 AM 7:08 PM
Waning Crescent, 7% visible
METAR GCRR 251700Z 09007KT 9999 FEW042 SCT047 17/09 Q1017
Pressure 30.04 in
Visibility 6.2 miles
Clouds Few 4200 ft
Scattered Clouds 4700 ft
Dew Point 48 °F
Humidity 59%
Rainfall 0.00 in
Snow Depth Not available.
6:52 AM 7:08 PM
Waning Crescent, 7% visible
METAR GCRR 251700Z 09007KT 9999 FEW042 SCT047 17/09 Q1017

Get Severe Weather Alerts

Thanks for signing up!

Be on the lookout for a verification email in your inbox.

You'll start receiving the daily forecast at 8 AM.

×

10-Day Weather Forecast

×

Almanac

Astronomy

Mar. 25, 2017 Rise Set
Actual Time
Civil Twilight
Nautical Twilight
Astronomical Twilight
Moon
Length of Visible Light
Length of Day
Tomorrow will be .
, % of the Moon is Illuminated

Today's Extremes

Country Highs Country Lows

Community

WunderPhotos

Upload Photos

1,962,540 photos uploaded!

WunderBlog® & News

Nearby

Air Quality

  Air Quality AQ Index Pollutant
Not available.

Snow Depth

Station Depth Elevation

Earthquake Activity

City Distance Mag. Time & Date
Minimum magnitude displayed is 2.5.

Earthquake Activity

City Distance Mag. Time & Date
Minimum magnitude displayed is 2.5.

Coastal Water Temperatures

Place Temperature

Stations

Nearby Weather Stations

Station Location Temp. Windchill Dew Point Humidity Wind Precip. Elev Updated Type